Demir Kapija, Macedonia
Current Conditions -  °F | °C
As of 11:30 PM on Wednesday 17 Dec 2014 (Local Time) from LWSK Reporting Station
Haze Haze  
Wind Chill: 45°   Ceiling: 1000
Heat Index: 45°   Visibility: 3mi
Dew Point: 43°   Wind: 0mph
Humidity: 93%   Direction: NA
Pressure: 29.97"   Gusts: NA
Location:  41.43°N, 22.26°E
Report Text: LWSK 172130Z 00000KT 5000 BR OVC010 07/06 Q1015 NOSIG
Loading
Personal Weather Stations






























Interactive Weather Map New forecast layout! Learn more

10-Day Weather Forecast

Advertisements
Track Severe Weather on mobile